sensor_id;sensor_type;location;lat;lon;timestamp;pressure;altitude;pressure_sealevel;temperature;humidity
76598;BME280;65486;53.144;18.134;2023-07-31T00:00:44;100399.54;;;17.99;72.00
76598;BME280;65486;53.144;18.134;2023-07-31T00:03:26;100398.25;;;17.89;71.75
76598;BME280;65486;53.144;18.134;2023-07-31T00:05:53;100409.30;;;17.89;72.20
76598;BME280;65486;53.144;18.134;2023-07-31T00:08:20;100409.14;;;17.88;71.95
76598;BME280;65486;53.144;18.134;2023-07-31T00:10:50;100411.91;;;17.86;71.69
76598;BME280;65486;53.144;18.134;2023-07-31T00:13:17;100413.91;;;17.85;72.02
76598;BME280;65486;53.144;18.134;2023-07-31T00:15:44;100406.62;;;17.85;71.71
76598;BME280;65486;53.144;18.134;2023-07-31T00:18:11;100406.49;;;17.85;71.54
76598;BME280;65486;53.144;18.134;2023-07-31T00:20:38;100400.55;;;17.83;71.49
76598;BME280;65486;53.144;18.134;2023-07-31T00:23:05;100400.20;;;17.77;71.47
76598;BME280;65486;53.144;18.134;2023-07-31T00:25:32;100409.57;;;17.80;71.84
76598;BME280;65486;53.144;18.134;2023-07-31T00:27:59;100403.05;;;17.76;71.74
76598;BME280;65486;53.144;18.134;2023-07-31T00:30:26;100407.63;;;17.80;71.65
76598;BME280;65486;53.144;18.134;2023-07-31T00:32:54;100400.83;;;17.79;71.60
76598;BME280;65486;53.144;18.134;2023-07-31T00:35:21;100400.88;;;17.78;71.68
76598;BME280;65486;53.144;18.134;2023-07-31T00:37:49;100403.55;;;17.77;71.38
76598;BME280;65486;53.144;18.134;2023-07-31T00:40:18;100405.95;;;17.75;71.48
76598;BME280;65486;53.144;18.134;2023-07-31T00:42:45;100409.92;;;17.74;71.54
76598;BME280;65486;53.144;18.134;2023-07-31T00:45:12;100416.21;;;17.75;71.57
76598;BME280;65486;53.144;18.134;2023-07-31T00:47:40;100414.82;;;17.76;71.62
76598;BME280;65486;53.144;18.134;2023-07-31T00:50:08;100415.10;;;17.76;71.62
76598;BME280;65486;53.144;18.134;2023-07-31T00:52:35;100412.88;;;17.75;71.62
76598;BME280;65486;53.144;18.134;2023-07-31T00:55:04;100414.33;;;17.73;71.81
76598;BME280;65486;53.144;18.134;2023-07-31T00:57:32;100418.55;;;17.72;72.08
76598;BME280;65486;53.144;18.134;2023-07-31T01:00:01;100423.35;;;17.71;72.53
76598;BME280;65486;53.144;18.134;2023-07-31T01:02:28;100422.24;;;17.69;72.97
76598;BME280;65486;53.144;18.134;2023-07-31T01:04:55;100423.18;;;17.64;73.58
76598;BME280;65486;53.144;18.134;2023-07-31T01:07:37;100423.94;;;17.58;73.92
76598;BME280;65486;53.144;18.134;2023-07-31T01:10:16;100424.15;;;17.52;74.42
76598;BME280;65486;53.144;18.134;2023-07-31T01:12:45;100427.94;;;17.46;74.84
76598;BME280;65486;53.144;18.134;2023-07-31T01:15:17;100432.43;;;17.41;75.18
76598;BME280;65486;53.144;18.134;2023-07-31T01:17:44;100429.92;;;17.36;74.79
76598;BME280;65486;53.144;18.134;2023-07-31T01:20:20;100429.19;;;17.33;75.25
76598;BME280;65486;53.144;18.134;2023-07-31T01:26:08;100437.42;;;17.23;75.65
76598;BME280;65486;53.144;18.134;2023-07-31T01:28:47;100433.62;;;17.18;75.61
76598;BME280;65486;53.144;18.134;2023-07-31T01:31:22;100434.94;;;17.14;75.88
76598;BME280;65486;53.144;18.134;2023-07-31T01:33:53;100438.84;;;17.13;76.22
76598;BME280;65486;53.144;18.134;2023-07-31T01:36:24;100435.60;;;17.10;76.13
76598;BME280;65486;53.144;18.134;2023-07-31T01:38:52;100437.04;;;17.06;76.21
76598;BME280;65486;53.144;18.134;2023-07-31T01:41:18;100433.84;;;17.04;76.22
76598;BME280;65486;53.144;18.134;2023-07-31T01:43:48;100430.89;;;17.03;76.57
76598;BME280;65486;53.144;18.134;2023-07-31T01:46:16;100433.36;;;17.02;76.40
76598;BME280;65486;53.144;18.134;2023-07-31T01:48:43;100428.81;;;16.99;76.44
76598;BME280;65486;53.144;18.134;2023-07-31T01:51:10;100426.37;;;16.97;76.11
76598;BME280;65486;53.144;18.134;2023-07-31T01:53:37;100421.05;;;16.94;76.45
76598;BME280;65486;53.144;18.134;2023-07-31T01:56:04;100430.58;;;16.89;76.36
76598;BME280;65486;53.144;18.134;2023-07-31T01:58:37;100433.17;;;16.84;76.53
76598;BME280;65486;53.144;18.134;2023-07-31T02:01:04;100437.50;;;16.81;76.75
76598;BME280;65486;53.144;18.134;2023-07-31T02:03:31;100436.81;;;16.78;77.17
76598;BME280;65486;53.144;18.134;2023-07-31T02:05:58;100433.59;;;16.77;77.15
76598;BME280;65486;53.144;18.134;2023-07-31T02:08:26;100433.63;;;16.75;76.67
76598;BME280;65486;53.144;18.134;2023-07-31T02:10:53;100433.12;;;16.72;77.12
76598;BME280;65486;53.144;18.134;2023-07-31T02:13:21;100436.34;;;16.72;77.01
76598;BME280;65486;53.144;18.134;2023-07-31T02:15:48;100436.89;;;16.69;77.04
76598;BME280;65486;53.144;18.134;2023-07-31T02:18:15;100435.08;;;16.64;77.12
76598;BME280;65486;53.144;18.134;2023-07-31T02:20:42;100435.98;;;16.58;77.20
76598;BME280;65486;53.144;18.134;2023-07-31T02:23:14;100440.92;;;16.49;76.92
76598;BME280;65486;53.144;18.134;2023-07-31T02:25:42;100437.27;;;16.40;77.30
76598;BME280;65486;53.144;18.134;2023-07-31T02:28:09;100434.60;;;16.33;77.37
76598;BME280;65486;53.144;18.134;2023-07-31T02:30:37;100437.79;;;16.26;77.63
76598;BME280;65486;53.144;18.134;2023-07-31T02:33:05;100443.98;;;16.20;78.11
76598;BME280;65486;53.144;18.134;2023-07-31T02:35:32;100432.13;;;16.12;78.23
76598;BME280;65486;53.144;18.134;2023-07-31T02:37:59;100440.79;;;16.10;78.10
76598;BME280;65486;53.144;18.134;2023-07-31T02:40:27;100445.91;;;16.04;78.27
76598;BME280;65486;53.144;18.134;2023-07-31T02:42:54;100446.42;;;15.98;78.47
76598;BME280;65486;53.144;18.134;2023-07-31T02:45:21;100449.61;;;15.92;78.69
76598;BME280;65486;53.144;18.134;2023-07-31T02:47:49;100452.14;;;15.90;79.01
76598;BME280;65486;53.144;18.134;2023-07-31T02:50:15;100448.35;;;15.87;79.07
76598;BME280;65486;53.144;18.134;2023-07-31T02:52:42;100450.77;;;15.86;79.15
76598;BME280;65486;53.144;18.134;2023-07-31T02:55:09;100450.34;;;15.84;79.24
76598;BME280;65486;53.144;18.134;2023-07-31T02:57:37;100446.20;;;15.83;79.42
76598;BME280;65486;53.144;18.134;2023-07-31T03:00:04;100446.86;;;15.83;79.23
76598;BME280;65486;53.144;18.134;2023-07-31T03:02:33;100451.61;;;15.81;79.53
76598;BME280;65486;53.144;18.134;2023-07-31T03:05:00;100452.06;;;15.81;79.44
76598;BME280;65486;53.144;18.134;2023-07-31T03:07:27;100447.95;;;15.80;79.24
76598;BME280;65486;53.144;18.134;2023-07-31T03:09:55;100444.00;;;15.79;79.14
76598;BME280;65486;53.144;18.134;2023-07-31T03:12:24;100443.55;;;15.78;79.04
76598;BME280;65486;53.144;18.134;2023-07-31T03:14:51;100448.48;;;15.77;79.25
76598;BME280;65486;53.144;18.134;2023-07-31T03:17:18;100448.63;;;15.76;79.05
76598;BME280;65486;53.144;18.134;2023-07-31T03:19:45;100448.18;;;15.75;79.13
76598;BME280;65486;53.144;18.134;2023-07-31T03:22:12;100448.84;;;15.75;79.32
76598;BME280;65486;53.144;18.134;2023-07-31T03:24:39;100455.02;;;15.75;79.28
76598;BME280;65486;53.144;18.134;2023-07-31T03:27:07;100458.27;;;15.77;79.40
76598;BME280;65486;53.144;18.134;2023-07-31T03:29:35;100464.41;;;15.81;79.18
76598;BME280;65486;53.144;18.134;2023-07-31T03:32:04;100465.34;;;15.85;79.15
76598;BME280;65486;53.144;18.134;2023-07-31T03:34:34;100469.72;;;15.90;79.23
76598;BME280;65486;53.144;18.134;2023-07-31T03:37:01;100466.98;;;15.95;79.20
76598;BME280;65486;53.144;18.134;2023-07-31T03:39:28;100468.03;;;16.01;79.16
76598;BME280;65486;53.144;18.134;2023-07-31T03:41:55;100467.43;;;16.08;79.11
76598;BME280;65486;53.144;18.134;2023-07-31T03:44:22;100472.33;;;16.16;78.71
76598;BME280;65486;53.144;18.134;2023-07-31T03:46:49;100468.22;;;16.25;78.75
76598;BME280;65486;53.144;18.134;2023-07-31T03:49:16;100475.29;;;16.33;78.37
76598;BME280;65486;53.144;18.134;2023-07-31T03:51:43;100473.65;;;16.37;78.41
76598;BME280;65486;53.144;18.134;2023-07-31T03:54:11;100474.61;;;16.40;78.28
76598;BME280;65486;53.144;18.134;2023-07-31T03:56:41;100479.68;;;16.42;78.08
76598;BME280;65486;53.144;18.134;2023-07-31T03:59:08;100478.86;;;16.44;78.05
76598;BME280;65486;53.144;18.134;2023-07-31T04:01:36;100480.39;;;16.48;77.72
76598;BME280;65486;53.144;18.134;2023-07-31T04:04:03;100478.45;;;16.57;77.47
76598;BME280;65486;53.144;18.134;2023-07-31T04:06:31;100480.05;;;16.68;77.20
76598;BME280;65486;53.144;18.134;2023-07-31T04:08:59;100480.73;;;16.81;77.02
76598;BME280;65486;53.144;18.134;2023-07-31T04:11:26;100475.87;;;16.91;76.76
76598;BME280;65486;53.144;18.134;2023-07-31T04:13:54;100476.80;;;16.99;76.38
76598;BME280;65486;53.144;18.134;2023-07-31T04:16:21;100475.30;;;17.03;75.99
76598;BME280;65486;53.144;18.134;2023-07-31T04:18:51;100474.30;;;17.04;75.64
76598;BME280;65486;53.144;18.134;2023-07-31T04:21:18;100470.01;;;17.04;75.42
76598;BME280;65486;53.144;18.134;2023-07-31T04:23:45;100466.05;;;17.03;75.48
76598;BME280;65486;53.144;18.134;2023-07-31T04:26:13;100470.28;;;17.00;75.38
76598;BME280;65486;53.144;18.134;2023-07-31T04:28:40;100468.09;;;16.95;75.38
76598;BME280;65486;53.144;18.134;2023-07-31T04:31:07;100466.56;;;16.92;75.26
76598;BME280;65486;53.144;18.134;2023-07-31T04:33:35;100466.17;;;16.91;75.29
76598;BME280;65486;53.144;18.134;2023-07-31T04:36:02;100461.37;;;16.90;75.30
76598;BME280;65486;53.144;18.134;2023-07-31T04:38:30;100465.70;;;16.88;75.12
76598;BME280;65486;53.144;18.134;2023-07-31T04:40:57;100466.17;;;16.90;75.04
76598;BME280;65486;53.144;18.134;2023-07-31T04:43:24;100462.18;;;16.94;74.81
76598;BME280;65486;53.144;18.134;2023-07-31T04:45:51;100466.50;;;17.00;74.79
76598;BME280;65486;53.144;18.134;2023-07-31T04:48:20;100466.06;;;17.07;74.79
76598;BME280;65486;53.144;18.134;2023-07-31T04:50:47;100468.16;;;17.16;74.64
76598;BME280;65486;53.144;18.134;2023-07-31T04:53:15;100469.66;;;17.35;74.16
76598;BME280;65486;53.144;18.134;2023-07-31T04:55:42;100465.27;;;17.58;73.84
76598;BME280;65486;53.144;18.134;2023-07-31T04:58:09;100471.55;;;17.72;73.00
76598;BME280;65486;53.144;18.134;2023-07-31T05:00:37;100478.54;;;17.89;72.83
76598;BME280;65486;53.144;18.134;2023-07-31T05:03:04;100475.58;;;18.04;72.70
76598;BME280;65486;53.144;18.134;2023-07-31T05:05:31;100472.33;;;18.18;72.08
76598;BME280;65486;53.144;18.134;2023-07-31T05:07:58;100469.58;;;18.34;71.71
76598;BME280;65486;53.144;18.134;2023-07-31T05:10:25;100471.95;;;18.50;70.67
76598;BME280;65486;53.144;18.134;2023-07-31T05:12:52;100478.89;;;18.56;70.28
76598;BME280;65486;53.144;18.134;2023-07-31T05:15:21;100481.02;;;18.59;69.95
76598;BME280;65486;53.144;18.134;2023-07-31T05:17:50;100482.17;;;18.65;69.78
76598;BME280;65486;53.144;18.134;2023-07-31T05:20:21;100481.12;;;18.79;69.67
76598;BME280;65486;53.144;18.134;2023-07-31T05:22:50;100473.05;;;19.00;69.14
76598;BME280;65486;53.144;18.134;2023-07-31T05:25:19;100475.87;;;19.32;68.09
76598;BME280;65486;53.144;18.134;2023-07-31T05:27:48;100476.27;;;19.64;67.13
76598;BME280;65486;53.144;18.134;2023-07-31T05:30:16;100474.92;;;19.88;66.23
76598;BME280;65486;53.144;18.134;2023-07-31T05:32:42;100482.88;;;20.14;65.83
76598;BME280;65486;53.144;18.134;2023-07-31T05:35:11;100481.36;;;20.72;63.25
76598;BME280;65486;53.144;18.134;2023-07-31T05:37:38;100476.63;;;21.85;61.74
76598;BME280;65486;53.144;18.134;2023-07-31T05:40:05;100469.95;;;22.53;60.46
76598;BME280;65486;53.144;18.134;2023-07-31T05:42:33;100470.44;;;23.63;58.27
76598;BME280;65486;53.144;18.134;2023-07-31T05:45:00;100470.27;;;24.93;56.18
76598;BME280;65486;53.144;18.134;2023-07-31T05:47:28;100464.71;;;26.16;53.93
76598;BME280;65486;53.144;18.134;2023-07-31T05:49:55;100454.32;;;27.15;51.82
76598;BME280;65486;53.144;18.134;2023-07-31T05:52:23;100453.80;;;28.09;49.86
76598;BME280;65486;53.144;18.134;2023-07-31T05:54:50;100455.90;;;28.86;48.28
76598;BME280;65486;53.144;18.134;2023-07-31T05:57:19;100450.36;;;29.66;45.35
76598;BME280;65486;53.144;18.134;2023-07-31T05:59:46;100449.74;;;30.31;42.87
76598;BME280;65486;53.144;18.134;2023-07-31T06:02:13;100448.59;;;30.81;42.05
76598;BME280;65486;53.144;18.134;2023-07-31T06:04:40;100448.48;;;31.46;41.02
76598;BME280;65486;53.144;18.134;2023-07-31T06:07:07;100454.32;;;31.90;38.46
76598;BME280;65486;53.144;18.134;2023-07-31T06:09:35;100458.69;;;32.07;37.37
76598;BME280;65486;53.144;18.134;2023-07-31T06:12:02;100454.71;;;32.35;35.89
76598;BME280;65486;53.144;18.134;2023-07-31T06:14:29;100457.52;;;32.37;34.23
76598;BME280;65486;53.144;18.134;2023-07-31T06:16:55;100458.48;;;32.57;34.85
76598;BME280;65486;53.144;18.134;2023-07-31T06:19:22;100456.05;;;33.01;34.39
76598;BME280;65486;53.144;18.134;2023-07-31T06:21:49;100457.70;;;33.51;32.89
76598;BME280;65486;53.144;18.134;2023-07-31T06:24:16;100461.17;;;33.67;31.72
76598;BME280;65486;53.144;18.134;2023-07-31T06:26:46;100464.09;;;33.82;31.11
76598;BME280;65486;53.144;18.134;2023-07-31T06:29:13;100462.29;;;34.00;30.87
76598;BME280;65486;53.144;18.134;2023-07-31T06:31:41;100462.42;;;34.35;30.65
76598;BME280;65486;53.144;18.134;2023-07-31T06:34:09;100457.76;;;34.63;29.93
76598;BME280;65486;53.144;18.134;2023-07-31T06:36:36;100455.92;;;34.81;29.75
76598;BME280;65486;53.144;18.134;2023-07-31T06:39:07;100457.78;;;34.95;29.48
76598;BME280;65486;53.144;18.134;2023-07-31T06:41:35;100454.98;;;35.21;28.87
76598;BME280;65486;53.144;18.134;2023-07-31T06:44:02;100456.41;;;34.99;28.18
76598;BME280;65486;53.144;18.134;2023-07-31T06:46:29;100461.04;;;34.24;28.15
76598;BME280;65486;53.144;18.134;2023-07-31T06:48:56;100461.91;;;32.96;29.33
76598;BME280;65486;53.144;18.134;2023-07-31T06:51:23;100461.67;;;31.91;30.21
76598;BME280;65486;53.144;18.134;2023-07-31T06:53:50;100463.41;;;31.12;31.21
76598;BME280;65486;53.144;18.134;2023-07-31T06:56:17;100461.26;;;30.68;31.82
76598;BME280;65486;53.144;18.134;2023-07-31T06:58:44;100464.30;;;30.02;32.56
76598;BME280;65486;53.144;18.134;2023-07-31T07:01:12;100470.33;;;29.56;33.37
76598;BME280;65486;53.144;18.134;2023-07-31T07:03:39;100471.41;;;28.85;34.22
76598;BME280;65486;53.144;18.134;2023-07-31T07:06:07;100471.44;;;28.10;35.19
76598;BME280;65486;53.144;18.134;2023-07-31T07:08:34;100469.24;;;27.41;36.24
76598;BME280;65486;53.144;18.134;2023-07-31T07:11:01;100470.33;;;26.92;36.87
76598;BME280;65486;53.144;18.134;2023-07-31T07:13:28;100466.74;;;26.54;37.86
76598;BME280;65486;53.144;18.134;2023-07-31T07:15:55;100470.02;;;26.08;38.38
76598;BME280;65486;53.144;18.134;2023-07-31T07:18:23;100473.65;;;25.64;39.21
76598;BME280;65486;53.144;18.134;2023-07-31T07:20:51;100475.30;;;25.35;39.71
76598;BME280;65486;53.144;18.134;2023-07-31T07:23:19;100479.11;;;25.00;40.52
76598;BME280;65486;53.144;18.134;2023-07-31T07:25:47;100479.67;;;24.61;41.36
76598;BME280;65486;53.144;18.134;2023-07-31T07:28:14;100475.86;;;24.33;41.95
76598;BME280;65486;53.144;18.134;2023-07-31T07:30:43;100475.59;;;24.22;42.59
76598;BME280;65486;53.144;18.134;2023-07-31T07:33:10;100479.32;;;24.24;42.72
76598;BME280;65486;53.144;18.134;2023-07-31T07:35:38;100474.66;;;24.16;43.11
76598;BME280;65486;53.144;18.134;2023-07-31T07:38:05;100475.10;;;24.16;43.46
76598;BME280;65486;53.144;18.134;2023-07-31T07:40:32;100474.13;;;24.37;43.34
76598;BME280;65486;53.144;18.134;2023-07-31T07:42:59;100476.09;;;24.60;43.40
76598;BME280;65486;53.144;18.134;2023-07-31T07:45:30;100482.30;;;24.78;43.30
76598;BME280;65486;53.144;18.134;2023-07-31T07:47:57;100488.81;;;25.00;43.57
76598;BME280;65486;53.144;18.134;2023-07-31T07:50:25;100486.33;;;25.16;43.50
76598;BME280;65486;53.144;18.134;2023-07-31T07:52:52;100479.01;;;25.15;42.28
76598;BME280;65486;53.144;18.134;2023-07-31T07:55:19;100470.89;;;25.56;41.65
76598;BME280;65486;53.144;18.134;2023-07-31T07:57:47;100470.75;;;25.96;41.77
76598;BME280;65486;53.144;18.134;2023-07-31T08:00:16;100472.73;;;26.16;41.12
76598;BME280;65486;53.144;18.134;2023-07-31T08:02:43;100466.21;;;26.34;40.25
76598;BME280;65486;53.144;18.134;2023-07-31T08:05:11;100470.79;;;26.24;40.11
76598;BME280;65486;53.144;18.134;2023-07-31T08:07:38;100475.69;;;26.08;40.73
76598;BME280;65486;53.144;18.134;2023-07-31T08:10:05;100472.65;;;25.93;41.03
76598;BME280;65486;53.144;18.134;2023-07-31T08:12:32;100473.77;;;25.71;40.78
76598;BME280;65486;53.144;18.134;2023-07-31T08:14:59;100475.74;;;25.34;40.62
76598;BME280;65486;53.144;18.134;2023-07-31T08:17:26;100476.27;;;24.99;41.05
76598;BME280;65486;53.144;18.134;2023-07-31T08:19:54;100473.83;;;24.77;41.69
76598;BME280;65486;53.144;18.134;2023-07-31T08:22:24;100475.90;;;24.61;42.49
76598;BME280;65486;53.144;18.134;2023-07-31T08:24:54;100475.48;;;24.45;42.05
76598;BME280;65486;53.144;18.134;2023-07-31T08:27:21;100469.64;;;24.23;42.65
76598;BME280;65486;53.144;18.134;2023-07-31T08:29:49;100469.86;;;24.16;43.29
76598;BME280;65486;53.144;18.134;2023-07-31T08:32:18;100469.09;;;24.08;43.61
76598;BME280;65486;53.144;18.134;2023-07-31T08:34:45;100466.36;;;24.00;43.60
76598;BME280;65486;53.144;18.134;2023-07-31T08:37:12;100459.58;;;23.94;43.48
76598;BME280;65486;53.144;18.134;2023-07-31T08:39:39;100463.73;;;23.88;44.11
76598;BME280;65486;53.144;18.134;2023-07-31T08:42:09;100462.70;;;23.89;43.97
76598;BME280;65486;53.144;18.134;2023-07-31T08:44:37;100459.14;;;23.94;44.41
76598;BME280;65486;53.144;18.134;2023-07-31T08:47:05;100453.77;;;24.13;43.81
76598;BME280;65486;53.144;18.134;2023-07-31T08:49:33;100455.17;;;24.33;42.72
76598;BME280;65486;53.144;18.134;2023-07-31T08:52:06;100452.91;;;24.73;42.43
76598;BME280;65486;53.144;18.134;2023-07-31T08:54:33;100452.06;;;25.21;42.10
76598;BME280;65486;53.144;18.134;2023-07-31T08:57:00;100442.16;;;25.89;41.54
76598;BME280;65486;53.144;18.134;2023-07-31T08:59:29;100440.66;;;26.53;39.52
76598;BME280;65486;53.144;18.134;2023-07-31T09:02:03;100442.02;;;26.62;39.75
76598;BME280;65486;53.144;18.134;2023-07-31T09:04:32;100442.02;;;26.56;39.40
76598;BME280;65486;53.144;18.134;2023-07-31T09:07:03;100442.11;;;26.47;39.36
76598;BME280;65486;53.144;18.134;2023-07-31T09:09:31;100438.41;;;26.48;39.18
76598;BME280;65486;53.144;18.134;2023-07-31T09:11:58;100437.02;;;26.29;39.22
76598;BME280;65486;53.144;18.134;2023-07-31T09:14:26;100433.80;;;26.40;39.35
76598;BME280;65486;53.144;18.134;2023-07-31T09:16:55;100433.61;;;26.40;39.49
76598;BME280;65486;53.144;18.134;2023-07-31T09:19:33;100425.66;;;26.14;39.60
76598;BME280;65486;53.144;18.134;2023-07-31T09:22:02;100431.38;;;25.89;40.43
76598;BME280;65486;53.144;18.134;2023-07-31T09:24:32;100430.42;;;25.61;40.09
76598;BME280;65486;53.144;18.134;2023-07-31T09:27:01;100426.66;;;25.16;40.91
76598;BME280;65486;53.144;18.134;2023-07-31T09:29:28;100424.35;;;24.97;41.79
76598;BME280;65486;53.144;18.134;2023-07-31T09:31:56;100421.45;;;25.07;42.05
76598;BME280;65486;53.144;18.134;2023-07-31T09:34:37;100416.05;;;25.29;41.62
76598;BME280;65486;53.144;18.134;2023-07-31T09:37:07;100416.47;;;25.30;41.82
76598;BME280;65486;53.144;18.134;2023-07-31T09:39:46;100414.65;;;25.23;41.95
76598;BME280;65486;53.144;18.134;2023-07-31T09:42:13;100416.05;;;24.99;42.30
76598;BME280;65486;53.144;18.134;2023-07-31T09:44:41;100409.92;;;24.65;42.59
76598;BME280;65486;53.144;18.134;2023-07-31T09:47:22;100408.42;;;24.48;42.78
76598;BME280;65486;53.144;18.134;2023-07-31T09:49:50;100408.67;;;24.22;43.23
76598;BME280;65486;53.144;18.134;2023-07-31T09:52:18;100399.89;;;24.00;43.67
76598;BME280;65486;53.144;18.134;2023-07-31T09:54:45;100394.34;;;23.79;44.10
76598;BME280;65486;53.144;18.134;2023-07-31T09:57:12;100395.05;;;23.48;44.79
76598;BME280;65486;53.144;18.134;2023-07-31T09:59:40;100388.23;;;23.08;45.50
76598;BME280;65486;53.144;18.134;2023-07-31T10:02:15;100397.63;;;22.76;46.04
76598;BME280;65486;53.144;18.134;2023-07-31T10:04:49;100411.09;;;22.37;47.90
76598;BME280;65486;53.144;18.134;2023-07-31T10:07:18;100411.61;;;21.98;51.02
76598;BME280;65486;53.144;18.134;2023-07-31T10:09:45;100415.68;;;21.56;52.28
76598;BME280;65486;53.144;18.134;2023-07-31T10:12:17;100427.84;;;21.27;54.18
76598;BME280;65486;53.144;18.134;2023-07-31T10:14:45;100430.64;;;21.04;56.37
76598;BME280;65486;53.144;18.134;2023-07-31T10:17:13;100429.05;;;20.75;57.24
76598;BME280;65486;53.144;18.134;2023-07-31T10:19:42;100425.77;;;20.53;58.17
76598;BME280;65486;53.144;18.134;2023-07-31T10:22:11;100408.40;;;20.38;59.33
76598;BME280;65486;53.144;18.134;2023-07-31T10:24:39;100395.61;;;20.21;59.16
76598;BME280;65486;53.144;18.134;2023-07-31T10:27:07;100390.85;;;20.11;59.92
76598;BME280;65486;53.144;18.134;2023-07-31T10:29:37;100397.20;;;20.08;60.84
76598;BME280;65486;53.144;18.134;2023-07-31T10:32:07;100400.75;;;20.06;61.22
76598;BME280;65486;53.144;18.134;2023-07-31T10:34:39;100395.66;;;20.06;61.26
76598;BME280;65486;53.144;18.134;2023-07-31T10:37:27;100390.46;;;20.21;61.39
76598;BME280;65486;53.144;18.134;2023-07-31T10:39:59;100386.98;;;20.36;61.50
76598;BME280;65486;53.144;18.134;2023-07-31T10:42:38;100380.61;;;20.54;61.81
76598;BME280;65486;53.144;18.134;2023-07-31T10:45:11;100372.29;;;20.69;61.78
76598;BME280;65486;53.144;18.134;2023-07-31T10:47:47;100365.77;;;20.84;61.71
76598;BME280;65486;53.144;18.134;2023-07-31T10:50:22;100360.92;;;21.06;61.94
76598;BME280;65486;53.144;18.134;2023-07-31T10:52:52;100351.44;;;21.38;61.72
76598;BME280;65486;53.144;18.134;2023-07-31T10:55:41;100348.75;;;21.61;61.29
76598;BME280;65486;53.144;18.134;2023-07-31T10:58:12;100344.20;;;21.78;61.06
76598;BME280;65486;53.144;18.134;2023-07-31T11:00:41;100341.52;;;21.90;60.29
76598;BME280;65486;53.144;18.134;2023-07-31T11:03:16;100339.70;;;21.90;59.42
76598;BME280;65486;53.144;18.134;2023-07-31T11:05:47;100335.90;;;21.81;59.27
76598;BME280;65486;53.144;18.134;2023-07-31T11:10:48;100329.84;;;21.49;60.50
76598;BME280;65486;53.144;18.134;2023-07-31T11:13:16;100326.48;;;21.44;60.73
76598;BME280;65486;53.144;18.134;2023-07-31T11:15:43;100323.97;;;21.50;61.50
76598;BME280;65486;53.144;18.134;2023-07-31T11:18:10;100322.64;;;21.53;61.72
76598;BME280;65486;53.144;18.134;2023-07-31T11:20:38;100319.36;;;21.48;61.69
76598;BME280;65486;53.144;18.134;2023-07-31T11:23:08;100320.19;;;21.38;61.23
76598;BME280;65486;53.144;18.134;2023-07-31T11:25:39;100322.29;;;21.29;61.57
76598;BME280;65486;53.144;18.134;2023-07-31T11:28:10;100319.14;;;21.22;61.34
76598;BME280;65486;53.144;18.134;2023-07-31T11:30:40;100321.70;;;21.16;60.37
76598;BME280;65486;53.144;18.134;2023-07-31T11:33:12;100319.21;;;21.09;59.91
76598;BME280;65486;53.144;18.134;2023-07-31T11:35:48;100314.48;;;20.96;58.55
76598;BME280;65486;53.144;18.134;2023-07-31T11:38:25;100322.84;;;20.87;58.40
76598;BME280;65486;53.144;18.134;2023-07-31T11:40:56;100327.27;;;20.76;58.80
76598;BME280;65486;53.144;18.134;2023-07-31T11:43:23;100327.28;;;20.66;59.02
76598;BME280;65486;53.144;18.134;2023-07-31T11:45:53;100333.83;;;20.58;58.85
76598;BME280;65486;53.144;18.134;2023-07-31T11:50:59;100324.59;;;20.66;58.97
76598;BME280;65486;53.144;18.134;2023-07-31T11:53:31;100323.13;;;20.98;58.49
76598;BME280;65486;53.144;18.134;2023-07-31T11:56:04;100319.98;;;21.37;58.06
76598;BME280;65486;53.144;18.134;2023-07-31T11:58:34;100322.60;;;21.61;57.22
76598;BME280;65486;53.144;18.134;2023-07-31T12:01:01;100319.66;;;21.81;56.66
76598;BME280;65486;53.144;18.134;2023-07-31T12:03:31;100324.02;;;22.05;55.73
76598;BME280;65486;53.144;18.134;2023-07-31T12:05:58;100321.31;;;22.20;55.96
76598;BME280;65486;53.144;18.134;2023-07-31T12:08:26;100316.63;;;22.38;56.45
76598;BME280;65486;53.144;18.134;2023-07-31T12:10:54;100317.64;;;22.50;55.48
76598;BME280;65486;53.144;18.134;2023-07-31T12:13:26;100318.60;;;22.50;55.01
76598;BME280;65486;53.144;18.134;2023-07-31T12:15:58;100316.16;;;22.49;55.18
76598;BME280;65486;53.144;18.134;2023-07-31T12:18:28;100306.57;;;22.51;54.49
76598;BME280;65486;53.144;18.134;2023-07-31T12:20:58;100306.54;;;22.53;53.91
76598;BME280;65486;53.144;18.134;2023-07-31T12:23:33;100304.98;;;22.59;54.23
76598;BME280;65486;53.144;18.134;2023-07-31T12:26:15;100301.83;;;22.89;54.36
76598;BME280;65486;53.144;18.134;2023-07-31T12:28:49;100302.05;;;23.38;53.62
76598;BME280;65486;53.144;18.134;2023-07-31T12:31:22;100298.04;;;23.66;53.03
76598;BME280;65486;53.144;18.134;2023-07-31T12:33:51;100298.90;;;23.76;52.65
76598;BME280;65486;53.144;18.134;2023-07-31T12:36:21;100296.28;;;23.80;52.57
76598;BME280;65486;53.144;18.134;2023-07-31T12:38:52;100295.58;;;23.89;51.93
76598;BME280;65486;53.144;18.134;2023-07-31T12:41:19;100297.91;;;23.78;51.39
76598;BME280;65486;53.144;18.134;2023-07-31T12:43:46;100294.02;;;23.69;51.66
76598;BME280;65486;53.144;18.134;2023-07-31T12:46:13;100291.17;;;23.64;51.24
76598;BME280;65486;53.144;18.134;2023-07-31T12:48:41;100288.86;;;23.47;51.57
76598;BME280;65486;53.144;18.134;2023-07-31T12:51:11;100284.30;;;23.18;51.76
76598;BME280;65486;53.144;18.134;2023-07-31T12:53:38;100283.70;;;22.90;52.37
76598;BME280;65486;53.144;18.134;2023-07-31T12:56:05;100287.20;;;22.63;53.17